Espaço - Ciências - Fenômenos Naturais
Meteógrafos Informações Meteorológicas em tempo real

Aeroporto de Rio Branco

Histórico do Tempo
Temperatura atual: 20 graus 68 F    Umidade relativa: 100 %
Velocidade do vento: 02 nós 3 Km/h    Direção: 350 graus N
Ajuste do altímetro ..: 1013 HPA
Visibilidade: Ótima    Tempo presente: Céu Limpo

Observação

Data Hora BRTTempo°CUmidadePressãoVentoVisib.
26/05 - 07:56   Céu Limpo 20° 100% 1013 Norte/3 km/h OK
26/05 - 06:56   Céu Limpo 20° 100% 1013 Norte/3 km/h OK
26/05 - 05:56   Céu Limpo 20° 93% 1013 Norte/3 km/h OK
26/05 - 04:56   Céu Limpo 20° 93% 1013 Norte/3 km/h OK
26/05 - 03:56   Céu Limpo 20° 100% 1013 Norte/3 km/h OK
26/05 - 02:56   Céu Limpo 20° 100% 1013 Norte/3 km/h OK
26/05 - 01:56   Não Disponível 21° 94% 1014 Norte-noroeste/3 km/h OK
26/05 - 00:56   Poucas nuvens esparsas 21° 100% 1014 Nordeste/7 km/h OK
25/05 - 23:56   Parcialmente Nublado 22° 100% 1014 Oeste/5 km/h OK
25/05 - 22:56   Parcialmente Nublado 22° 100% 1014 Noroeste/5 km/h OK
25/05 - 21:56   Poucas nuvens esparsas 22° 94% 1013 Norte/5 km/h OK
25/05 - 20:56   Não Disponível 23° 94% 1012 Oeste/5 km/h OK
25/05 - 19:56   Parcialmente Nublado 24° 83% 1012 Sudoeste/5 km/h OK
25/05 - 18:56   Parcialmente Nublado 24° 83% 1012 Sudoeste/5 km/h OK
25/05 - 17:56   Parcialmente Nublado 26° 74% 1012 Oeste/7 km/h OK
25/05 - 16:56   Parcialmente Nublado 26° 74% 1012 Noroeste/5 km/h OK
25/05 - 15:56   Poucas nuvens esparsas 26° 69% 1014 Nordeste/3 km/h OK
25/05 - 14:56   Poucas nuvens esparsas 26° 69% 1014 Nordeste/3 km/h OK
25/05 - 13:56   Parcialmente Nublado 24° 73% 1015 Sudoeste/5 km/h OK
25/05 - 12:56   Parcialmente Nublado 23° 73% 1016 Sul/9 km/h OK
25/05 - 11:56   Parcialmente Nublado 23° 73% 1016 Sul/9 km/h OK
25/05 - 10:56   Poucas nuvens esparsas 20° 82% 1017 Sul/7 km/h 9999
25/05 - 09:56   Poucas nuvens esparsas 18° 93% 1016 Sul/9 km/h OK
25/05 - 08:56   Parcialmente Nublado 17° 100% 1016 Sul-sudoeste/12 km/h OK


Apolo11.com - Todos os direitos reservados - 2000 - 2019
Política de Privacidade   |     Termo de Uso e Licenciamento   |  -   Entre em Contato

"Deixe que me odeiem, de maneira que me temam!" - Calígula